Data for 10/20/2018

Time Sea-Level Adjusted Pressure Absolute Pressure Temperature Relative Humidity Dew Point   
(mb) (inHg) (mb) (inHg) (C) (F) (%) (C) (F)
00:05 1028 30.36 858 25.34 7 44.7 39 -5.9 21.4
00:10 1028 30.36 858 25.34 6.5 43.8 40 -6 21.3
00:15 1028 30.36 858 25.34 6.6 43.9 40 -6.1 21
00:20 1028 30.36 858 25.34 6.7 44.1 39 -6.1 21
00:25 1028 30.36 858 25.34 6.4 43.5 40 -6.3 20.7
00:30 1028 30.36 858 25.34 6.4 43.5 39 -6.4 20.4
00:35 1028 30.36 858 25.34 6.2 43.1 41 -6.3 20.7
00:40 1028 30.36 858 25.34 6.1 43 41 -6.3 20.7
00:45 1028 30.36 858 25.34 5.9 42.6 42 -6 21.1
00:50 1028 30.36 858 25.34 5.8 42.4 42 -6 21.2
00:55 1028 30.36 858 25.34 5.8 42.5 43 -5.8 21.6
01:00 1028 30.36 858 25.34 5.9 42.6 42 -5.9 21.3
01:05 1028 30.36 858 25.34 5.9 42.7 43 -5.8 21.5
01:10 1028 30.36 858 25.34 6.3 43.3 40 -6.3 20.7
01:15 1028 30.36 858 25.34 6.7 44.1 39 -6.4 20.5
01:20 1028 30.36 858 25.34 6.7 44.1 39 -6.4 20.5
01:25 1028 30.36 858 25.34 6.8 44.2 39 -6.3 20.7
01:30 1028 30.36 858 25.34 6.5 43.7 40 -6 21.1
01:35 1028 30.36 858 25.34 6 42.9 41 -6.2 20.8
01:40 1028 30.36 858 25.34 6.2 43.2 41 -6.1 21
01:45 1028 30.36 858 25.34 6.2 43.2 41 -6.2 20.8
01:50 1028 30.36 858 25.34 6.3 43.3 41 -6.1 21.1
01:55 1028 30.36 858 25.34 6.2 43.1 41 -6 21.2
02:00 1028 30.36 857 25.31 6.1 43 41 -6.2 20.8
02:05 1028 30.36 857 25.31 6.2 43.2 40 -6.4 20.5
02:10 1028 30.36 857 25.31 6.4 43.5 41 -6.1 21.1
02:15 1028 30.36 857 25.31 6.2 43.2 41 -6.1 21.1
02:20 1028 30.36 857 25.31 6.1 43 43 -5.6 21.9
02:25 1028 30.36 857 25.31 5.8 42.4 42 -6.2 20.9
02:30 1028 30.36 857 25.31 6.1 42.9 41 -6.1 21
02:35 1028 30.36 857 25.31 6.4 43.6 40 -6 21.1
02:40 1028 30.36 857 25.31 6.4 43.5 42 -5.7 21.8
02:45 1028 30.36 857 25.31 6.1 42.9 43 -5.7 21.8
02:50 1028 30.36 857 25.31 6 42.9 42 -6 21.1
02:55 1028 30.36 857 25.31 6.2 43.1 43 -5.6 21.9
03:00 1028 30.36 857 25.31 6.1 42.9 43 -5.7 21.8
03:05 1028 30.36 857 25.31 5.9 42.6 41 -6.3 20.6
03:10 1028 30.36 857 25.31 6.3 43.4 40 -6.2 20.8
03:15 1028 30.36 857 25.31 6.5 43.7 40 -6.1 21
03:20 1028 30.36 857 25.31 6.6 43.9 38 -6.6 20.2
03:25 1028 30.36 857 25.31 6.7 44 39 -6.2 20.8
03:30 1028 30.36 857 25.31 6.6 43.9 39 -6.3 20.6
03:35 1028 30.36 857 25.31 6.6 43.8 40 -6.2 20.8
03:40 1028 30.36 857 25.31 6.3 43.3 41 -6 21.2
03:45 1028 30.36 857 25.31 6.1 43 41 -6.1 21
03:50 1028 30.36 857 25.31 6.1 43.1 41 -6 21.2
03:55 1028 30.36 857 25.31 5.9 42.6 42 -5.9 21.3
04:00 1028 30.36 857 25.31 5.7 42.3 43 -5.9 21.4
04:05 1028 30.36 857 25.31 5.5 41.9 44 -5.8 21.6
04:10 1028 30.36 857 25.31 5.4 41.6 44 -6 21.3
04:15 1028 30.36 857 25.31 5.4 41.7 43 -6.1 21
04:20 1028 30.36 857 25.31 5.4 41.8 44 -5.9 21.3
04:25 1028 30.36 857 25.31 5.2 41.3 44 -6 21.3
04:30 1028 30.36 857 25.31 4.9 40.9 46 -5.6 21.8
04:35 1028 30.36 857 25.31 4.7 40.4 47 -5.7 21.8
04:40 1028 30.36 857 25.31 4.8 40.7 44 -6.3 20.7
04:45 1028 30.36 857 25.31 5.3 41.5 44 -6 21.2
04:50 1028 30.36 857 25.31 5.4 41.8 44 -6 21.3
04:55 1028 30.36 857 25.31 5.5 41.9 43 -6 21.2
05:00 1028 30.36 857 25.31 5.5 41.9 43 -6 21.2
05:05 1028 30.36 857 25.31 5.8 42.4 41 -6.6 20.2
05:10 1028 30.36 857 25.31 6.2 43.1 42 -5.8 21.5
05:15 1028 30.36 857 25.31 6.2 43.1 40 -6.3 20.6
05:20 1028 30.36 857 25.31 6.3 43.3 41 -6.1 20.9
05:25 1028 30.36 857 25.31 6 42.9 41 -6.1 21
05:30 1028 30.36 857 25.31 5.8 42.4 42 -6.2 20.9
05:35 1028 30.36 857 25.31 5.8 42.4 42 -6.3 20.7
05:40 1028 30.36 857 25.31 5.9 42.7 41 -6.2 20.8
05:45 1028 30.36 857 25.31 5.9 42.7 41 -6.3 20.6
05:50 1028 30.36 857 25.31 6.3 43.3 39 -6.6 20.1
05:55 1028 30.36 857 25.31 6.4 43.5 40 -6.1 21.1
06:00 1028 30.36 857 25.31 6 42.7 42 -6.1 21.1
06:05 1028 30.36 857 25.31 6 42.8 42 -6 21.2
06:10 1028 30.36 857 25.31 5.5 41.9 45 -5.5 22.2
06:15 1028 30.36 857 25.31 5.1 41.2 45 -5.8 21.5
06:20 1028 30.36 857 25.31 5.1 41.2 45 -5.9 21.4
06:25 1028 30.36 857 25.31 5 40.9 46 -5.8 21.6
06:30 1028 30.36 857 25.31 5 41 45 -5.9 21.3
06:35 1028 30.36 857 25.31 4.9 40.9 46 -5.8 21.5
06:40 1028 30.36 857 25.31 4.7 40.4 47 -5.6 21.8
06:45 1028 30.36 857 25.31 4.6 40.4 46 -6.1 21.1
06:50 1028 30.36 857 25.31 5 41 47 -5.5 22.1
06:55 1028 30.36 857 25.31 4.4 40 48 -5.6 21.9
07:00 1028 30.36 857 25.31 5.1 41.1 42 -6.8 19.8
07:05 1028 30.36 857 25.31 5.9 42.6 41 -6.4 20.5
07:10 1028 30.36 857 25.31 6.4 43.5 39 -6.4 20.4
07:15 1028 30.36 857 25.31 6.4 43.5 41 -5.9 21.4
07:20 1028 30.36 857 25.31 6.7 44 39 -6.4 20.5
07:25 1028 30.36 857 25.31 6.6 44 41 -5.7 21.7
07:30 1028 30.36 857 25.31 6.1 43 41 -6.1 21.1
07:35 1028 30.36 857 25.31 6.4 43.6 39 -6.4 20.5
07:40 1028 30.36 857 25.31 6.5 43.7 41 -5.6 21.8
07:45 1028 30.36 857 25.31 6.8 44.3 40 -5.9 21.5
07:50 1028 30.36 857 25.31 7.4 45.2 38 -6 21.2
07:55 1028 30.36 857 25.31 7.5 45.5 39 -5.6 22
08:00 1028 30.36 857 25.31 7.2 44.9 42 -4.8 23.3
08:05 1028 30.36 857 25.31 6.8 44.2 43 -4.9 23.1
08:10 1028 30.36 857 25.31 6.3 43.4 44 -5 23
08:15 1028 30.36 857 25.31 6.6 43.8 43 -5.3 22.5
08:20 1028 30.36 857 25.31 7.2 45 41 -5 23
08:25 1028 30.36 857 25.31 7.3 45.2 41 -4.9 23.1
08:30 1028 30.36 857 25.31 7.6 45.6 40 -5.3 22.5
08:35 1028 30.36 857 25.31 8 46.4 39 -5.3 22.5
08:40 1027 30.33 857 25.31 8.9 48.1 35 -5.8 21.6
08:45 1027 30.33 857 25.31 9 48.3 35 -5.7 21.8
08:50 1027 30.33 857 25.31 9.1 48.4 34 -6 21.2
08:55 1027 30.33 857 25.31 9.5 49.1 34 -5.7 21.7
09:00 1027 30.33 856 25.28 9.9 49.9 33 -5.4 22.2
09:05 1027 30.33 856 25.28 10.6 51 33 -5.2 22.7
09:10 1027 30.33 856 25.28 10.7 51.2 33 -4.9 23.2
09:15 1027 30.33 856 25.28 10.8 51.4 33 -5 23.1
09:20 1027 30.33 856 25.28 10.8 51.4 32 -5.1 22.8
09:25 1027 30.33 856 25.28 10.9 51.6 32 -5.1 22.9
09:30 1027 30.33 856 25.28 11.9 53.4 30 -5.3 22.5
09:35 1027 30.33 856 25.28 12.4 54.2 30 -4.8 23.4
09:40 1027 30.33 856 25.28 12.4 54.3 28 -5.4 22.3
09:45 1027 30.33 856 25.28 13 55.4 29 -4.7 23.5
09:50 1027 30.33 856 25.28 13.5 56.4 27 -5.2 22.6
09:55 1027 30.33 856 25.28 13.6 56.4 26 -5.3 22.5
10:00 1027 30.33 856 25.28 14.1 57.4 26 -5.2 22.6
10:05 1027 30.33 856 25.28 14 57.3 26 -5.1 22.7
10:10 1026 30.3 856 25.28 14 57.2 26 -5.2 22.7
10:15 1026 30.3 856 25.28 14.5 58.1 25 -5.2 22.7
10:20 1026 30.3 856 25.28 15.1 59.2 25 -4.8 23.3
10:25 1026 30.3 856 25.28 15.6 60 25 -4.6 23.8
10:30 1026 30.3 855 25.25 15.9 60.7 25 -3.7 25.3
10:35 1026 30.3 855 25.25 14.9 58.7 26 -4.3 24.2
10:40 1026 30.3 855 25.25 14.3 57.8 27 -4.6 23.8
10:45 1026 30.3 855 25.25 15.2 59.4 25 -4.7 23.6
10:50 1026 30.3 855 25.25 15.6 60.1 25 -4.3 24.3
10:55 1026 30.3 855 25.25 15.8 60.5 25 -4.1 24.6
11:00 1026 30.3 855 25.25 15.4 59.6 28 -3.1 26.5
11:05 1026 30.3 855 25.25 15.4 59.7 27 -3.2 26.2
11:10 1026 30.3 855 25.25 14.5 58.1 28 -3.8 25.2
11:15 1026 30.3 855 25.25 15 59 28 -3.2 26.2
11:20 1026 30.3 855 25.25 14.7 58.5 29 -3 26.6
11:25 1026 30.3 855 25.25 13.7 56.7 30 -3.6 25.5
11:30 1026 30.3 855 25.25 14 57.2 27 -4.4 24.1
11:35 1026 30.3 855 25.25 14.5 58 28 -3.8 25.1
11:40 1026 30.3 855 25.25 15.1 59.3 27 -3.6 25.4
11:45 1026 30.3 855 25.25 15 59 28 -3.5 25.7
11:50 1026 30.3 855 25.25 15.8 60.4 26 -3.7 25.3
11:55 1026 30.3 855 25.25 16 60.9 26 -3.6 25.6
12:00 1026 30.3 855 25.25 16.3 61.3 26 -3.4 25.9
12:05 1026 30.3 855 25.25 16.5 61.6 26 -3.1 26.4
12:10 1026 30.3 855 25.25 16.4 61.6 27 -2.7 27.1
12:15 1026 30.3 855 25.25 16.4 61.5 27 -2.7 27.2
12:20 1025 30.27 855 25.25 16.6 61.8 25 -3.2 26.3
12:25 1025 30.27 855 25.25 16.8 62.3 25 -3.3 26.1
12:30 1025 30.27 855 25.25 17.5 63.5 24 -3 26.6
12:35 1025 30.27 855 25.25 17.1 62.8 26 -2.6 27.2
12:40 1025 30.27 854 25.22 17.4 63.3 24 -3.1 26.4
12:45 1025 30.27 854 25.22 17.6 63.7 24 -3.2 26.2
12:50 1025 30.27 854 25.22 17.6 63.6 24 -3.3 26
12:55 1025 30.27 854 25.22 18 64.4 23 -3.1 26.5
13:00 1025 30.27 854 25.22 18.3 65 23 -3 26.6
13:05 1025 30.27 854 25.22 18 64.5 24 -2.9 26.8
13:10 1025 30.27 854 25.22 18.2 64.7 24 -2.7 27.1
13:15 1025 30.27 854 25.22 18.7 65.6 23 -3 26.6
13:20 1025 30.27 854 25.22 18.6 65.4 23 -3.1 26.4
13:25 1025 30.27 854 25.22 18.4 65.1 22 -3.6 25.6
13:30 1025 30.27 854 25.22 18.7 65.7 23 -2.9 26.9
13:35 1025 30.27 854 25.22 18.1 64.6 23 -3.3 26.1
13:40 1025 30.27 854 25.22 18.8 65.9 22 -3.4 25.8
13:45 1025 30.27 854 25.22 19.3 66.7 21 -3.2 26.3
13:50 1025 30.27 854 25.22 19 66.3 22 -3 26.5
13:55 1025 30.27 854 25.22 18.8 65.9 22 -3.3 26
14:00 1024 30.24 854 25.22 19.2 66.5 20 -3.9 24.9
14:05 1024 30.24 854 25.22 19 66.2 21 -3.7 25.4
14:10 1024 30.24 853 25.19 19.6 67.3 20 -4.1 24.6
14:15 1024 30.24 853 25.19 19.6 67.3 21 -3.4 25.8
14:20 1024 30.24 853 25.19 19.8 67.6 20 -4 24.9
14:25 1024 30.24 853 25.19 20.4 68.8 20 -3.2 26.2
14:30 1024 30.24 853 25.19 20.3 68.5 19 -3.6 25.4
14:35 1024 30.24 853 25.19 20.6 69 19 -3.7 25.4
14:40 1024 30.24 853 25.19 20.5 68.9 20 -3.2 26.3
14:45 1024 30.24 853 25.19 20.7 69.2 19 -3.9 25
14:50 1024 30.24 853 25.19 20.9 69.6 18 -3.9 25
14:55 1024 30.24 853 25.19 20.8 69.4 18 -4.3 24.3
15:00 1024 30.24 853 25.19 20.6 69.1 19 -3.9 25
15:05 1024 30.24 853 25.19 21.2 70.2 17 -4.5 23.8
15:10 1024 30.24 853 25.19 21.5 70.6 17 -4.5 23.9
15:15 1023 30.21 853 25.19 21.5 70.7 16 -5.5 22.1
15:20 1023 30.21 853 25.19 20.5 68.9 18 -4.2 24.5
15:25 1023 30.21 853 25.19 20.3 68.6 18 -4.6 23.7
15:30 1023 30.21 853 25.19 20.9 69.6 17 -4.7 23.5
15:35 1023 30.21 853 25.19 21.3 70.3 17 -4.7 23.5
15:40 1023 30.21 853 25.19 21.2 70.1 17 -4.8 23.4
15:45 1023 30.21 853 25.19 21.1 70 17 -4.9 23.2
15:50 1023 30.21 853 25.19 21.3 70.4 17 -4.6 23.7
15:55 1023 30.21 852 25.16 21 69.8 18 -4.2 24.4
16:00 1023 30.21 852 25.16 20.5 68.8 18 -4.5 23.9
16:05 1023 30.21 852 25.16 20.7 69.2 17 -5.3 22.4
16:10 1023 30.21 852 25.16 20.7 69.3 17 -4.7 23.5
16:15 1023 30.21 852 25.16 21 69.7 17 -5.1 22.9
16:20 1023 30.21 852 25.16 21.6 70.9 15 -5.7 21.8
16:25 1023 30.21 852 25.16 21.6 70.8 16 -4.8 23.3
16:30 1023 30.21 852 25.16 20.9 69.6 18 -4.5 23.9
16:35 1023 30.21 852 25.16 20.5 68.9 18 -4.7 23.5
16:40 1023 30.21 852 25.16 20.5 68.9 18 -4.2 24.4
16:45 1023 30.21 852 25.16 20.3 68.5 18 -4.4 24
16:50 1023 30.21 852 25.16 20.3 68.5 19 -4.2 24.4
16:55 1023 30.21 852 25.16 20 68.1 19 -4.1 24.7
17:00 1023 30.21 852 25.16 19.8 67.7 20 -3.6 25.5
17:05 1023 30.21 852 25.16 19.5 67.2 20 -3.6 25.5
17:10 1023 30.21 852 25.16 19.4 66.9 20 -4.1 24.6
17:15 1022 30.18 852 25.16 19.1 66.5 21 -3.6 25.5
17:20 1022 30.18 852 25.16 19 66.1 23 -2.8 27
17:25 1022 30.18 852 25.16 17.9 64.3 29 -0.4 31.2
17:30 1022 30.18 852 25.16 16.4 61.5 31 -0.8 30.6
17:35 1022 30.18 852 25.16 15.7 60.2 32 -1.1 30.1
17:40 1022 30.18 852 25.16 15.3 59.5 32 -1.4 29.5
17:45 1022 30.18 852 25.16 15 58.9 33 -1.2 29.8
17:50 1022 30.18 852 25.16 14.5 58.1 34 -1.3 29.7
17:55 1022 30.18 852 25.16 14 57.2 35 -1 30.2
18:00 1022 30.18 852 25.16 13.6 56.4 37 -0.9 30.3
18:05 1022 30.18 851 25.13 13.3 56 37 -1 30.3
18:10 1022 30.18 852 25.16 13 55.4 38 -1 30.2
18:15 1022 30.18 852 25.16 12.8 55.1 38 -1.1 29.9
18:20 1022 30.18 852 25.16 12.7 54.9 38 -1.2 29.9
18:25 1022 30.18 852 25.16 12.6 54.8 38 -1.2 29.9
18:30 1022 30.18 852 25.16 12.5 54.4 38 -1.2 29.8
18:35 1022 30.18 852 25.16 12.4 54.2 39 -1.3 29.7
18:40 1022 30.18 852 25.16 12.2 53.9 39 -1.3 29.7
18:45 1022 30.18 852 25.16 12.1 53.7 39 -1.5 29.2
18:50 1022 30.18 852 25.16 12.1 53.7 39 -1.5 29.3
18:55 1022 30.18 852 25.16 12 53.5 39 -1.6 29
19:00 1022 30.18 852 25.16 12.2 54 37 -1.8 28.8
19:05 1022 30.18 852 25.16 12.5 54.4 35 -2.5 27.6
19:10 1022 30.18 852 25.16 12.9 55.2 35 -2.3 27.8
19:15 1022 30.18 852 25.16 12.6 54.6 37 -1.8 28.8
19:20 1022 30.18 852 25.16 12.4 54.2 37 -1.7 28.9
19:25 1022 30.18 851 25.13 12.4 54.3 37 -2 28.5
19:30 1022 30.18 851 25.13 12.5 54.4 37 -1.7 29
19:35 1022 30.18 851 25.13 12.3 54.2 37 -1.8 28.8
19:40 1022 30.18 851 25.13 12.2 54 38 -1.7 29
19:45 1022 30.18 851 25.13 12.1 53.7 39 -1.5 29.3
19:50 1022 30.18 851 25.13 11.7 53.1 40 -1.4 29.4
19:55 1022 30.18 851 25.13 11.4 52.6 40 -1.5 29.3
20:00 1022 30.18 851 25.13 11.3 52.3 41 -1.4 29.4
20:05 1022 30.18 851 25.13 11.2 52.2 41 -1.5 29.3
20:10 1022 30.18 851 25.13 11 51.8 42 -1.4 29.4
20:15 1022 30.18 851 25.13 10.6 51.1 43 -1.5 29.3
20:20 1022 30.18 851 25.13 10.7 51.2 42 -1.8 28.8
20:25 1022 30.18 851 25.13 10.9 51.6 42 -1.6 29.2
20:30 1022 30.18 851 25.13 10.8 51.5 42 -1.5 29.2
20:35 1022 30.18 851 25.13 10.6 51.1 42 -1.7 28.9
20:40 1022 30.18 851 25.13 11 51.7 41 -1.9 28.6
20:45 1022 30.18 851 25.13 11.1 52 40 -1.8 28.8
20:50 1022 30.18 851 25.13 11.1 52 40 -1.9 28.6
20:55 1022 30.18 851 25.13 11.1 52 40 -1.9 28.6
21:00 1022 30.18 851 25.13 11.2 52.2 39 -2.1 28.2
21:05 1022 30.18 851 25.13 11.5 52.7 38 -2.2 28.1
21:10 1022 30.18 851 25.13 11.3 52.4 40 -1.7 29
21:15 1022 30.18 851 25.13 11 51.8 41 -1.6 29.1
21:20 1022 30.18 851 25.13 10.9 51.6 43 -1.3 29.7
21:25 1022 30.18 852 25.16 10.5 51 44 -1.1 30
21:30 1022 30.18 852 25.16 10.3 50.5 44 -1.4 29.5
21:35 1022 30.18 852 25.16 10.2 50.4 43 -1.7 29
21:40 1022 30.18 852 25.16 10.2 50.4 42 -2 28.5
21:45 1022 30.18 852 25.16 10.3 50.6 43 -1.8 28.8
21:50 1022 30.18 852 25.16 10.1 50.1 43 -1.8 28.8
21:55 1023 30.21 852 25.16 10.2 50.4 42 -2 28.4
22:00 1023 30.21 852 25.16 10.3 50.5 42 -1.9 28.5
22:05 1023 30.21 852 25.16 10.1 50.3 43 -2 28.4
22:10 1023 30.21 852 25.16 10.1 50.2 43 -2 28.4
22:15 1023 30.21 852 25.16 10.1 50.2 42 -2 28.4
22:20 1023 30.21 852 25.16 10 50 44 -1.7 28.9
22:25 1023 30.21 852 25.16 9.9 49.7 42 -2.3 27.8
22:30 1023 30.21 852 25.16 9.9 49.9 43 -2.1 28.2
22:35 1023 30.21 852 25.16 10.1 50.3 41 -2.6 27.3
22:40 1023 30.21 852 25.16 10.2 50.4 43 -1.7 29
22:45 1023 30.21 852 25.16 9.6 49.2 44 -2.2 28.1
22:50 1023 30.21 852 25.16 9.5 49.1 43 -2.3 27.9
22:55 1023 30.21 852 25.16 9.5 49 44 -2.1 28.2
23:00 1023 30.21 852 25.16 9.4 49 43 -2.3 27.8
23:05 1023 30.21 852 25.16 9.8 49.6 42 -2.5 27.4
23:10 1023 30.21 852 25.16 9.9 49.8 42 -2.3 27.8
23:15 1023 30.21 852 25.16 9.8 49.6 42 -2.6 27.3
23:20 1023 30.21 852 25.16 9.8 49.6 43 -2.1 28.3
23:25 1023 30.21 852 25.16 9 48.2 46 -2 28.4
23:30 1023 30.21 852 25.16 8.5 47.3 47 -2.1 28.3
23:35 1023 30.21 852 25.16 8.4 47.2 46 -2.6 27.4
23:40 1023 30.21 852 25.16 9 48.2 45 -2.2 28
23:45 1023 30.21 852 25.16 8.9 47.9 46 -2.2 28
23:50 1023 30.21 852 25.16 8.8 47.8 45 -2.4 27.7
23:55 1023 30.21 852 25.16 8.9 48 45 -2.4 27.7
24:00 1023 30.21 852 25.16 9.2 48.5 43 -2.7 27.2